sensor_id;sensor_type;location;lat;lon;timestamp;pressure;altitude;pressure_sealevel;temperature;humidity
74435;BME280;62867;52.038;29.256;2023-03-13T00:04:04;1020.2;;;-1.1;60.5
74435;BME280;62867;52.038;29.256;2023-03-13T00:09:18;1020.3;;;-1.2;60.9
74435;BME280;62867;52.038;29.256;2023-03-13T00:14:04;1020.3;;;-1.2;60.9
74435;BME280;62867;52.038;29.256;2023-03-13T00:18:30;1020.4;;;-1.3;60.9
74435;BME280;62867;52.038;29.256;2023-03-13T00:23:54;1020.4;;;-1.4;60.6
74435;BME280;62867;52.038;29.256;2023-03-13T00:29:04;1020.5;;;-1.4;60.5
74435;BME280;62867;52.038;29.256;2023-03-13T00:34:18;1020.5;;;-1.4;61.1
74435;BME280;62867;52.038;29.256;2023-03-13T00:39:04;1020.6;;;-1.5;61.9
74435;BME280;62867;52.038;29.256;2023-03-13T00:43:30;1020.6;;;-1.5;61.5
74435;BME280;62867;52.038;29.256;2023-03-13T00:48:54;1020.6;;;-1.5;61.9
74435;BME280;62867;52.038;29.256;2023-03-13T00:54:04;1020.6;;;-1.6;61.8
74435;BME280;62867;52.038;29.256;2023-03-13T00:59:18;1020.7;;;-1.6;62.1
74435;BME280;62867;52.038;29.256;2023-03-13T01:04:02;1020.8;;;-1.6;62.2
74435;BME280;62867;52.038;29.256;2023-03-13T01:08:54;1020.8;;;-1.7;62.3
74435;BME280;62867;52.038;29.256;2023-03-13T01:13:54;1020.8;;;-1.7;62.8
74435;BME280;62867;52.038;29.256;2023-03-13T01:18:30;1020.9;;;-1.8;63.4
74435;BME280;62867;52.038;29.256;2023-03-13T01:24:04;1021;;;-1.9;63.9
74435;BME280;62867;52.038;29.256;2023-03-13T01:29:18;1021.1;;;-2;63.1
74435;BME280;62867;52.038;29.256;2023-03-13T01:33:42;1021.1;;;-2;63.1
74435;BME280;62867;52.038;29.256;2023-03-13T01:38:55;1021.2;;;-2.1;63.6
74435;BME280;62867;52.038;29.256;2023-03-13T01:44:11;1021.2;;;-2.1;63.5
74435;BME280;62867;52.038;29.256;2023-03-13T01:49:17;1021.3;;;-2.1;64
74435;BME280;62867;52.038;29.256;2023-03-13T01:54:19;1021.3;;;-2.2;64
74435;BME280;62867;52.038;29.256;2023-03-13T01:58:40;1021.4;;;-2.2;63.6
74435;BME280;62867;52.038;29.256;2023-03-13T02:03:30;1021.4;;;-2.2;63.7
74435;BME280;62867;52.038;29.256;2023-03-13T02:08:43;1021.5;;;-2.3;64.1
74435;BME280;62867;52.038;29.256;2023-03-13T02:14:02;1021.6;;;-2.3;64.1
74435;BME280;62867;52.038;29.256;2023-03-13T02:19:22;1021.6;;;-2.4;64.2
74435;BME280;62867;52.038;29.256;2023-03-13T02:23:30;1021.6;;;-2.4;64.5
74435;BME280;62867;52.038;29.256;2023-03-13T02:28:42;1021.7;;;-2.5;64.1
74435;BME280;62867;52.038;29.256;2023-03-13T02:33:56;1021.8;;;-2.5;64.1
74435;BME280;62867;52.038;29.256;2023-03-13T02:39:04;1021.9;;;-2.5;64.3
74435;BME280;62867;52.038;29.256;2023-03-13T02:44:18;1021.9;;;-2.5;64.7
74435;BME280;62867;52.038;29.256;2023-03-13T02:48:43;1022;;;-2.6;64.7
74435;BME280;62867;52.038;29.256;2023-03-13T02:53:53;1022;;;-2.6;64.9
74435;BME280;62867;52.038;29.256;2023-03-13T02:58:41;1022;;;-2.6;64.9
74435;BME280;62867;52.038;29.256;2023-03-13T03:04:18;1022.1;;;-2.7;64.8
74435;BME280;62867;52.038;29.256;2023-03-13T03:09:16;1022.1;;;-2.7;65.3
74435;BME280;62867;52.038;29.256;2023-03-13T03:13:42;1022.2;;;-2.8;64.9
74435;BME280;62867;52.038;29.256;2023-03-13T03:18:54;1022.3;;;-2.9;64.8
74435;BME280;62867;52.038;29.256;2023-03-13T03:23:52;1022.4;;;-2.9;65.2
74435;BME280;62867;52.038;29.256;2023-03-13T03:29:04;1022.4;;;-3;64.8
74435;BME280;62867;52.038;29.256;2023-03-13T03:34:18;1022.4;;;-3;64.6
74435;BME280;62867;52.038;29.256;2023-03-13T03:38:42;1022.4;;;-3;65.4
74435;BME280;62867;52.038;29.256;2023-03-13T03:43:54;1022.5;;;-3;65.7
74435;BME280;62867;52.038;29.256;2023-03-13T03:48:42;1022.6;;;-3.1;65.4
74435;BME280;62867;52.038;29.256;2023-03-13T03:54:04;1022.7;;;-3.1;65.5
74435;BME280;62867;52.038;29.256;2023-03-13T03:59:16;1022.8;;;-3.1;65.7
74435;BME280;62867;52.038;29.256;2023-03-13T04:03:52;1022.8;;;-3.1;65.5
74435;BME280;62867;52.038;29.256;2023-03-13T04:08:42;1022.8;;;-3.2;65.9
74435;BME280;62867;52.038;29.256;2023-03-13T04:13:52;1022.8;;;-3.2;65.6
74435;BME280;62867;52.038;29.256;2023-03-13T04:19:04;1022.8;;;-3.2;66.4
74435;BME280;62867;52.038;29.256;2023-03-13T04:24:18;1022.8;;;-3.2;65.5
74435;BME280;62867;52.038;29.256;2023-03-13T04:28:54;1022.9;;;-3.2;65.8
74435;BME280;62867;52.038;29.256;2023-03-13T04:33:40;1023;;;-3.2;66
74435;BME280;62867;52.038;29.256;2023-03-13T04:39:18;1023.1;;;-3.2;66.4
74435;BME280;62867;52.038;29.256;2023-03-13T04:44:02;1023.2;;;-3.1;66.4
74435;BME280;62867;52.038;29.256;2023-03-13T04:49:18;1023.2;;;-3.1;66.6
74435;BME280;62867;52.038;29.256;2023-03-13T04:53:42;1023.2;;;-3;66.5
74435;BME280;62867;52.038;29.256;2023-03-13T04:59:12;1023.3;;;-3;66.9
74435;BME280;62867;52.038;29.256;2023-03-13T05:03:40;1023.3;;;-2.9;66.7
74435;BME280;62867;52.038;29.256;2023-03-13T05:09:02;1023.3;;;-2.7;66.7
74435;BME280;62867;52.038;29.256;2023-03-13T05:14:16;1023.3;;;-2.6;66.3
74435;BME280;62867;52.038;29.256;2023-03-13T05:19:02;1023.4;;;-2.3;65.8
74435;BME280;62867;52.038;29.256;2023-03-13T05:23:52;1023.5;;;-2.1;65.3
74435;BME280;62867;52.038;29.256;2023-03-13T05:28:52;1023.5;;;-1.9;65
74435;BME280;62867;52.038;29.256;2023-03-13T05:34:06;1023.5;;;-1.7;64.6
74435;BME280;62867;52.038;29.256;2023-03-13T05:39:06;1023.5;;;-1.4;64.2
74435;BME280;62867;52.038;29.256;2023-03-13T05:43:54;1023.5;;;-1.2;63.8
74435;BME280;62867;52.038;29.256;2023-03-13T05:48:54;1023.5;;;-1;63.4
74435;BME280;62867;52.038;29.256;2023-03-13T05:53:54;1023.6;;;-0.7;62.8
74435;BME280;62867;52.038;29.256;2023-03-13T05:59:04;1023.6;;;-0.4;62
74435;BME280;62867;52.038;29.256;2023-03-13T06:04:16;1023.6;;;-0.2;61.5
74435;BME280;62867;52.038;29.256;2023-03-13T06:08:54;1023.7;;;0;61.1
74435;BME280;62867;52.038;29.256;2023-03-13T06:13:52;1023.7;;;0.3;60.6
74435;BME280;62867;52.038;29.256;2023-03-13T06:18:40;1023.8;;;0.6;60.1
74435;BME280;62867;52.038;29.256;2023-03-13T06:24:02;1023.9;;;1;59.5
74435;BME280;62867;52.038;29.256;2023-03-13T06:29:16;1023.9;;;1.2;59.4
74435;BME280;62867;52.038;29.256;2023-03-13T06:34:02;1023.8;;;1.5;58.8
74435;BME280;62867;52.038;29.256;2023-03-13T06:38:52;1023.9;;;1.7;58.1
74435;BME280;62867;52.038;29.256;2023-03-13T06:43:40;1023.9;;;2;57.5
74435;BME280;62867;52.038;29.256;2023-03-13T06:49:04;1023.8;;;2.1;56.8
74435;BME280;62867;52.038;29.256;2023-03-13T06:54:18;1023.8;;;2.3;55.5
74435;BME280;62867;52.038;29.256;2023-03-13T06:59:04;1023.9;;;2.5;54.8
74435;BME280;62867;52.038;29.256;2023-03-13T07:03:50;1024;;;2.7;53.8
74435;BME280;62867;52.038;29.256;2023-03-13T07:08:40;1024;;;2.8;54
74435;BME280;62867;52.038;29.256;2023-03-13T07:14:04;1024;;;3;54
74435;BME280;62867;52.038;29.256;2023-03-13T07:19:18;1024;;;3.3;53.5
74435;BME280;62867;52.038;29.256;2023-03-13T07:24:16;1024;;;3.5;53.1
74435;BME280;62867;52.038;29.256;2023-03-13T07:28:30;1024;;;3.7;52.6
74435;BME280;62867;52.038;29.256;2023-03-13T07:33:50;1023.9;;;3.9;52.5
74435;BME280;62867;52.038;29.256;2023-03-13T07:39:02;1023.9;;;4.3;52
74435;BME280;62867;52.038;29.256;2023-03-13T07:44:18;1023.9;;;4.5;51.4
74435;BME280;62867;52.038;29.256;2023-03-13T07:49:04;1023.9;;;4.7;49.7
74435;BME280;62867;52.038;29.256;2023-03-13T07:53:30;1023.8;;;4.8;48.7
74435;BME280;62867;52.038;29.256;2023-03-13T07:58:42;1023.8;;;4.8;48.6
74435;BME280;62867;52.038;29.256;2023-03-13T08:04:04;1023.7;;;5.1;48.8
74435;BME280;62867;52.038;29.256;2023-03-13T08:09:18;1023.7;;;5.4;47.1
74435;BME280;62867;52.038;29.256;2023-03-13T08:14:02;1023.5;;;5.6;46.9
74435;BME280;62867;52.038;29.256;2023-03-13T08:18:53;1023.5;;;5.7;47.4
74435;BME280;62867;52.038;29.256;2023-03-13T08:23:30;1023.5;;;5.8;47.5
74435;BME280;62867;52.038;29.256;2023-03-13T08:28:53;1023.5;;;5.8;47.9
74435;BME280;62867;52.038;29.256;2023-03-13T08:34:16;1023.5;;;5.9;48.4
74435;BME280;62867;52.038;29.256;2023-03-13T08:39:05;1023.5;;;6;48.3
74435;BME280;62867;52.038;29.256;2023-03-13T08:43:54;1023.5;;;6.2;48.5
74435;BME280;62867;52.038;29.256;2023-03-13T08:48:40;1023.5;;;6.3;47.8
74435;BME280;62867;52.038;29.256;2023-03-13T08:54:16;1023.5;;;6.3;47.7
74435;BME280;62867;52.038;29.256;2023-03-13T08:59:16;1023.4;;;6.4;48.3
74435;BME280;62867;52.038;29.256;2023-03-13T09:04:02;1023.3;;;6.6;47.7
74435;BME280;62867;52.038;29.256;2023-03-13T09:09:14;1023.4;;;6.6;48.1
74435;BME280;62867;52.038;29.256;2023-03-13T09:13:31;1023.4;;;6.6;48.5
74435;BME280;62867;52.038;29.256;2023-03-13T09:19:16;1023.3;;;6.8;48.4
74435;BME280;62867;52.038;29.256;2023-03-13T09:24:02;1023.2;;;6.9;48.5
74435;BME280;62867;52.038;29.256;2023-03-13T09:28:30;1023.1;;;7.1;48.3
74435;BME280;62867;52.038;29.256;2023-03-13T09:33:54;1023;;;7.3;48.7
74435;BME280;62867;52.038;29.256;2023-03-13T09:38:38;1023;;;7.4;48.7
74435;BME280;62867;52.038;29.256;2023-03-13T09:44:13;1022.9;;;7.4;48
74435;BME280;62867;52.038;29.256;2023-03-13T09:48:33;1022.8;;;7.5;47.5
74435;BME280;62867;52.038;29.256;2023-03-13T09:53:40;1022.7;;;7.6;47.4
74435;BME280;62867;52.038;29.256;2023-03-13T09:59:15;1022.6;;;7.6;46.9
74435;BME280;62867;52.038;29.256;2023-03-13T10:03:41;1022.6;;;7.4;47.5
74435;BME280;62867;52.038;29.256;2023-03-13T10:09:17;1022.6;;;7.4;47.9
74435;BME280;62867;52.038;29.256;2023-03-13T10:14:04;1022.5;;;7.7;47.9
74435;BME280;62867;52.038;29.256;2023-03-13T10:18:41;1022.4;;;7.9;47.3
74435;BME280;62867;52.038;29.256;2023-03-13T10:24:17;1022.3;;;8;47.5
74435;BME280;62867;52.038;29.256;2023-03-13T10:28:30;1022.2;;;7.9;47.6
74435;BME280;62867;52.038;29.256;2023-03-13T10:34:16;1022.1;;;8.1;48
74435;BME280;62867;52.038;29.256;2023-03-13T10:39:04;1022.1;;;8.3;47.6
74435;BME280;62867;52.038;29.256;2023-03-13T10:43:53;1022.1;;;8.5;46.7
74435;BME280;62867;52.038;29.256;2023-03-13T10:49:19;1022;;;8.6;46.6
74435;BME280;62867;52.038;29.256;2023-03-13T10:54:13;1022;;;8.6;46.8
74435;BME280;62867;52.038;29.256;2023-03-13T10:59:18;1021.9;;;8.6;46.6
74435;BME280;62867;52.038;29.256;2023-03-13T11:04:17;1021.8;;;8.7;46.3
74435;BME280;62867;52.038;29.256;2023-03-13T11:08:32;1021.7;;;8.8;46.9
74435;BME280;62867;52.038;29.256;2023-03-13T11:14:19;1021.6;;;8.8;46.3
74435;BME280;62867;52.038;29.256;2023-03-13T11:18:54;1021.5;;;9.2;46.5
74435;BME280;62867;52.038;29.256;2023-03-13T11:24:19;1021.5;;;9.6;46.6
74435;BME280;62867;52.038;29.256;2023-03-13T11:28:54;1021.4;;;9.5;46.2
74435;BME280;62867;52.038;29.256;2023-03-13T11:33:53;1021.4;;;9.6;46.2
74435;BME280;62867;52.038;29.256;2023-03-13T11:39:09;1021.4;;;9.7;45.5
74435;BME280;62867;52.038;29.256;2023-03-13T11:43:42;1021.4;;;9.6;44.9
74435;BME280;62867;52.038;29.256;2023-03-13T11:49:19;1021.5;;;9.1;45.5
74435;BME280;62867;52.038;29.256;2023-03-13T11:54:16;1021.5;;;9.1;45.9
74435;BME280;62867;52.038;29.256;2023-03-13T11:58:57;1021.5;;;9.1;46.5
74435;BME280;62867;52.038;29.256;2023-03-13T12:04:17;1021.5;;;9.2;46.1
74435;BME280;62867;52.038;29.256;2023-03-13T12:08:51;1021.5;;;9.1;45.9
74435;BME280;62867;52.038;29.256;2023-03-13T12:14:07;1021.5;;;9.1;46.6
74435;BME280;62867;52.038;29.256;2023-03-13T12:19:02;1021.4;;;9;46.2
74435;BME280;62867;52.038;29.256;2023-03-13T12:23:52;1021.4;;;8.8;47
74435;BME280;62867;52.038;29.256;2023-03-13T12:29:18;1021.3;;;8.6;47.3
74435;BME280;62867;52.038;29.256;2023-03-13T12:33:31;1021.3;;;8.5;47.6
74435;BME280;62867;52.038;29.256;2023-03-13T12:39:17;1021.2;;;8.3;48.1
74435;BME280;62867;52.038;29.256;2023-03-13T12:44:03;1021.1;;;8.3;48.1
74435;BME280;62867;52.038;29.256;2023-03-13T12:48:56;1021.1;;;8.3;47.8
74435;BME280;62867;52.038;29.256;2023-03-13T12:54:20;1021.1;;;8.4;48.4
74435;BME280;62867;52.038;29.256;2023-03-13T12:58:53;1021.1;;;8.5;47.4
74435;BME280;62867;52.038;29.256;2023-03-13T13:04:20;1021;;;8.3;47.9
74435;BME280;62867;52.038;29.256;2023-03-13T13:09:07;1021;;;8.1;47.7
74435;BME280;62867;52.038;29.256;2023-03-13T13:13:50;1020.9;;;7.9;48.6
74435;BME280;62867;52.038;29.256;2023-03-13T13:19:50;1020.9;;;7.8;49.3
74435;BME280;62867;52.038;29.256;2023-03-13T13:23:31;1020.9;;;7.8;49.2
74435;BME280;62867;52.038;29.256;2023-03-13T13:34:09;1020.9;;;7.7;49.3
74435;BME280;62867;52.038;29.256;2023-03-13T13:38:30;1020.9;;;7.5;49.7
74435;BME280;62867;52.038;29.256;2023-03-13T13:44:22;1020.8;;;7.3;49.9
74435;BME280;62867;52.038;29.256;2023-03-13T13:49:13;1020.8;;;7.1;50
74435;BME280;62867;52.038;29.256;2023-03-13T13:54:30;1020.8;;;7;50
74435;BME280;62867;52.038;29.256;2023-03-13T13:59:47;1020.7;;;6.9;50.6
74435;BME280;62867;52.038;29.256;2023-03-13T14:03:40;1020.5;;;6.9;51.1
74435;BME280;62867;52.038;29.256;2023-03-13T14:09:22;1020.4;;;6.9;51.3
74435;BME280;62867;52.038;29.256;2023-03-13T14:14:07;1020.3;;;7;51.2
74435;BME280;62867;52.038;29.256;2023-03-13T14:19:21;1020.2;;;7;51.3
74435;BME280;62867;52.038;29.256;2023-03-13T14:24:12;1020.2;;;7;50.9
74435;BME280;62867;52.038;29.256;2023-03-13T14:29:06;1020.2;;;6.9;51.3
74435;BME280;62867;52.038;29.256;2023-03-13T14:34:20;1020.1;;;6.9;51.8
74435;BME280;62867;52.038;29.256;2023-03-13T14:38:30;1020.1;;;6.8;51.6
74435;BME280;62867;52.038;29.256;2023-03-13T14:44:21;1020.1;;;6.7;51.8
74435;BME280;62867;52.038;29.256;2023-03-13T14:49:12;1020.1;;;6.6;52.1
74435;BME280;62867;52.038;29.256;2023-03-13T14:53:30;1020;;;6.5;52.1
74435;BME280;62867;52.038;29.256;2023-03-13T14:59:22;1019.9;;;6.5;52.5
74435;BME280;62867;52.038;29.256;2023-03-13T15:03:56;1019.8;;;6.5;52.7
74435;BME280;62867;52.038;29.256;2023-03-13T15:09:19;1019.7;;;6.5;52.1
74435;BME280;62867;52.038;29.256;2023-03-13T15:14:40;1019.7;;;6.4;52.8
74435;BME280;62867;52.038;29.256;2023-03-13T15:18:51;1019.6;;;6.4;53.2
74435;BME280;62867;52.038;29.256;2023-03-13T15:24:20;1019.5;;;6.3;53.2
74435;BME280;62867;52.038;29.256;2023-03-13T15:28:54;1019.5;;;6.3;52.9
74435;BME280;62867;52.038;29.256;2023-03-13T15:34:18;1019.5;;;6.3;53.2
74435;BME280;62867;52.038;29.256;2023-03-13T15:39:12;1019.5;;;6.2;53.2
74435;BME280;62867;52.038;29.256;2023-03-13T15:43:52;1019.6;;;6.2;54.2
74435;BME280;62867;52.038;29.256;2023-03-13T15:49:20;1019.5;;;6.2;54.3
74435;BME280;62867;52.038;29.256;2023-03-13T15:53:42;1019.5;;;6.2;54
74435;BME280;62867;52.038;29.256;2023-03-13T15:59:08;1019.5;;;6.2;54
74435;BME280;62867;52.038;29.256;2023-03-13T16:04:06;1019.5;;;6.2;53.6
74435;BME280;62867;52.038;29.256;2023-03-13T16:08:52;1019.4;;;6.2;53.7
74435;BME280;62867;52.038;29.256;2023-03-13T16:14:22;1019.4;;;6.2;54
74435;BME280;62867;52.038;29.256;2023-03-13T16:18:30;1019.3;;;6.2;53.9
74435;BME280;62867;52.038;29.256;2023-03-13T16:24:22;1019.3;;;6.1;53.9
74435;BME280;62867;52.038;29.256;2023-03-13T16:29:09;1019.3;;;6.1;53.8
74435;BME280;62867;52.038;29.256;2023-03-13T16:33:30;1019.2;;;6.1;54.3
74435;BME280;62867;52.038;29.256;2023-03-13T16:39:18;1019.2;;;6.1;54.1
74435;BME280;62867;52.038;29.256;2023-03-13T16:43:30;1019.2;;;6.1;54
74435;BME280;62867;52.038;29.256;2023-03-13T16:49:18;1019.1;;;6;54.6
74435;BME280;62867;52.038;29.256;2023-03-13T16:53:55;1019.1;;;6;54.6
74435;BME280;62867;52.038;29.256;2023-03-13T16:59:09;1019.1;;;6.1;54.4
74435;BME280;62867;52.038;29.256;2023-03-13T17:04:20;1019;;;6.1;54.4
74435;BME280;62867;52.038;29.256;2023-03-13T17:08:42;1019;;;6.1;54.7
74435;BME280;62867;52.038;29.256;2023-03-13T17:14:22;1019;;;6.2;54.4
74435;BME280;62867;52.038;29.256;2023-03-13T17:19:09;1019;;;6.2;54.3
74435;BME280;62867;52.038;29.256;2023-03-13T17:24:04;1018.9;;;6.2;54.2
74435;BME280;62867;52.038;29.256;2023-03-13T17:29:20;1018.9;;;6.2;54.7
74435;BME280;62867;52.038;29.256;2023-03-13T17:33:30;1018.9;;;6.2;55
74435;BME280;62867;52.038;29.256;2023-03-13T17:39:22;1018.9;;;6.2;55.2
74435;BME280;62867;52.038;29.256;2023-03-13T17:44:22;1018.8;;;6.1;55.4
74435;BME280;62867;52.038;29.256;2023-03-13T17:48:40;1018.7;;;6.1;55.6
74435;BME280;62867;52.038;29.256;2023-03-13T17:53:54;1018.7;;;6.1;56
74435;BME280;62867;52.038;29.256;2023-03-13T17:59:05;1018.6;;;6.2;55.6
74435;BME280;62867;52.038;29.256;2023-03-13T18:04:09;1018.5;;;6.3;55.7
74435;BME280;62867;52.038;29.256;2023-03-13T18:09:10;1018.4;;;6.3;55.5
74435;BME280;62867;52.038;29.256;2023-03-13T18:13:52;1018.4;;;6.3;55.3
74435;BME280;62867;52.038;29.256;2023-03-13T18:19:23;1018.3;;;6.4;55.6
74435;BME280;62867;52.038;29.256;2023-03-13T18:24:06;1018.3;;;6.4;55.7
74435;BME280;62867;52.038;29.256;2023-03-13T18:28:40;1018.3;;;6.4;56
74435;BME280;62867;52.038;29.256;2023-03-13T18:33:40;1018.2;;;6.4;55.8
74435;BME280;62867;52.038;29.256;2023-03-13T18:39:22;1018.2;;;6.4;55.9
74435;BME280;62867;52.038;29.256;2023-03-13T18:43:44;1018.2;;;6.5;55.9
74435;BME280;62867;52.038;29.256;2023-03-13T18:49:04;1018.2;;;6.5;55.6
74435;BME280;62867;52.038;29.256;2023-03-13T18:53:44;1018.2;;;6.5;55.2
74435;BME280;62867;52.038;29.256;2023-03-13T18:58:40;1018.1;;;6.6;55.3
74435;BME280;62867;52.038;29.256;2023-03-13T19:03:57;1018.1;;;6.6;55.5
74435;BME280;62867;52.038;29.256;2023-03-13T19:08:54;1018;;;6.6;55.4
74435;BME280;62867;52.038;29.256;2023-03-13T19:13:30;1018;;;6.7;54.8
74435;BME280;62867;52.038;29.256;2023-03-13T19:19:09;1018;;;6.7;54.7
74435;BME280;62867;52.038;29.256;2023-03-13T19:23:53;1018;;;6.8;54.3
74435;BME280;62867;52.038;29.256;2023-03-13T19:28:40;1018;;;6.8;54.3
74435;BME280;62867;52.038;29.256;2023-03-13T19:34:06;1017.9;;;6.8;54.8
74435;BME280;62867;52.038;29.256;2023-03-13T19:39:10;1017.9;;;6.8;55
74435;BME280;62867;52.038;29.256;2023-03-13T19:43:44;1017.9;;;6.8;54.2
74435;BME280;62867;52.038;29.256;2023-03-13T19:48:55;1017.9;;;6.8;53.9
74435;BME280;62867;52.038;29.256;2023-03-13T19:54:07;1017.9;;;6.8;53.5
74435;BME280;62867;52.038;29.256;2023-03-13T19:59:23;1018;;;6.8;53.8
74435;BME280;62867;52.038;29.256;2023-03-13T20:04:22;1018;;;6.9;54.2
74435;BME280;62867;52.038;29.256;2023-03-13T20:08:30;1017.9;;;6.9;54.8
74435;BME280;62867;52.038;29.256;2023-03-13T20:14:20;1017.8;;;6.9;54.6
74435;BME280;62867;52.038;29.256;2023-03-13T20:19:06;1017.7;;;6.9;54.7
74435;BME280;62867;52.038;29.256;2023-03-13T20:23:40;1017.7;;;6.9;54.3
74435;BME280;62867;52.038;29.256;2023-03-13T20:28:52;1017.7;;;6.9;53.8
74435;BME280;62867;52.038;29.256;2023-03-13T20:34:22;1017.6;;;6.9;53.8
74435;BME280;62867;52.038;29.256;2023-03-13T20:38:30;1017.5;;;6.9;53.6
74435;BME280;62867;52.038;29.256;2023-03-13T20:44:06;1017.5;;;6.9;53.4
74435;BME280;62867;52.038;29.256;2023-03-13T20:49:22;1017.4;;;6.9;53
74435;BME280;62867;52.038;29.256;2023-03-13T20:53:33;1017.4;;;7;52.8
74435;BME280;62867;52.038;29.256;2023-03-13T20:58:54;1017.3;;;7;53.3
74435;BME280;62867;52.038;29.256;2023-03-13T21:04:06;1017.2;;;7.1;53.2
74435;BME280;62867;52.038;29.256;2023-03-13T21:09:08;1017.1;;;7.1;52.7
74435;BME280;62867;52.038;29.256;2023-03-13T21:14:08;1017;;;7.2;52.7
74435;BME280;62867;52.038;29.256;2023-03-13T21:18:40;1016.9;;;7.2;52.4
74435;BME280;62867;52.038;29.256;2023-03-13T21:24:22;1016.8;;;7.2;51.9
74435;BME280;62867;52.038;29.256;2023-03-13T21:29:08;1016.8;;;7.2;52
74435;BME280;62867;52.038;29.256;2023-03-13T21:33:41;1016.8;;;7.2;52
74435;BME280;62867;52.038;29.256;2023-03-13T21:38:43;1016.8;;;7.2;52.4
74435;BME280;62867;52.038;29.256;2023-03-13T21:44:22;1016.9;;;7.2;51.7
74435;BME280;62867;52.038;29.256;2023-03-13T21:48:54;1016.9;;;7.2;52.4
74435;BME280;62867;52.038;29.256;2023-03-13T21:54:06;1016.9;;;7.3;51.6
74435;BME280;62867;52.038;29.256;2023-03-13T21:59:06;1016.8;;;7.3;51.9
74435;BME280;62867;52.038;29.256;2023-03-13T22:03:40;1016.7;;;7.3;51.7
74435;BME280;62867;52.038;29.256;2023-03-13T22:09:08;1016.6;;;7.3;52
74435;BME280;62867;52.038;29.256;2023-03-13T22:13:53;1016.6;;;7.3;52.2
74435;BME280;62867;52.038;29.256;2023-03-13T22:18:40;1016.6;;;7.3;52.2
74435;BME280;62867;52.038;29.256;2023-03-13T22:24:06;1016.5;;;7.3;51.8
74435;BME280;62867;52.038;29.256;2023-03-13T22:29:20;1016.5;;;7.3;51.2
74435;BME280;62867;52.038;29.256;2023-03-13T22:33:40;1016.5;;;7.3;51.3
74435;BME280;62867;52.038;29.256;2023-03-13T22:39:06;1016.5;;;7.3;51.6
74435;BME280;62867;52.038;29.256;2023-03-13T22:44:06;1016.5;;;7.4;51.4
74435;BME280;62867;52.038;29.256;2023-03-13T22:49:06;1016.5;;;7.4;51.4
74435;BME280;62867;52.038;29.256;2023-03-13T22:53:54;1016.5;;;7.4;51.6
74435;BME280;62867;52.038;29.256;2023-03-13T22:59:06;1016.5;;;7.4;50.9
